Погода Намадзина 2 недели

Южная Провинция, Малави

20 июля-02 августа
  • 20июля
    Сегодня
    +13°
    +28°
    Облачно с прояснениями
    ВремяПогодаТемператураВлажностьДавлениеВетер, м/сВероятность осадков
    02:00Практически безоблачно+15°C51 %663 мм1.5 м/с5 %
    05:00Практически безоблачно+14°C58 %663 мм1.6 м/с5 %
    08:00Небольшая облачность+20°C46 %666 мм1.9 м/с5 %
    11:00Облачно с прояснениями+25°C33 %667 мм1.5 м/с5 %
    14:00Облачно с прояснениями+27°C27 %665 мм0.8 м/с5 %
    17:00Ясно и безоблачно+25°C34 %665 мм1.2 м/с5 %
    20:00Ясно и безоблачно+19°C48 %665 мм2.1 м/с5 %
    23:00Ясно и безоблачно+17°C59 %664 мм2.3 м/с5 %
  • 21июля
    Воскресенье
    +11°
    +28°
    Небольшая облачность
    ВремяПогодаТемператураВлажностьДавлениеВетер, м/сВероятность осадков
    02:00Практически безоблачно+15°C64 %663 мм1.7 м/с5 %
    05:00Ясно и безоблачно+14°C64 %663 мм2.1 м/с5 %
    08:00Ясно и безоблачно+20°C55 %667 мм1.4 м/с5 %
    11:00Небольшая облачность+25°C35 %668 мм1.4 м/с5 %
    14:00Небольшая облачность+28°C28 %666 мм1.4 м/с5 %
    17:00Ясно и безоблачно+25°C27 %666 мм2.4 м/с5 %
    20:00Ясно и безоблачно+20°C52 %666 мм2.9 м/с5 %
    23:00Ясно и безоблачно+17°C66 %665 мм2.3 м/с5 %
  • 22июля
    Понедельник
    +13°
    +27°
    Облачно с прояснениями
    ВремяПогодаТемператураВлажностьДавлениеВетер, м/сВероятность осадков
    02:00Ясно и безоблачно+14°C85 %664 мм2.7 м/с5 %
    05:00Небольшая облачность+12°C93 %664 мм2.4 м/с5 %
    08:00Небольшая облачность+19°C69 %668 мм1.8 м/с5 %
    11:00Облачно с прояснениями+24°C42 %668 мм1.0 м/с5 %
    14:00Облачно с прояснениями+27°C37 %667 мм0.6 м/с5 %
    17:00Облачно с прояснениями+24°C45 %667 мм2.5 м/с5 %
    20:00Облачно с прояснениями+19°C57 %667 мм2.8 м/с5 %
    23:00Практически безоблачно+16°C64 %666 мм2.4 м/с5 %
  • 23июля
    Вторник
    +10°
    +27°
    Небольшая облачность
    ВремяПогодаТемператураВлажностьДавлениеВетер, м/сВероятность осадков
    02:00Небольшая облачность+14°C75 %665 мм2.1 м/с5 %
    05:00Небольшая облачность+13°C75 %665 мм1.6 м/с5 %
    08:00Ясно и безоблачно+19°C57 %668 мм1.4 м/с5 %
    11:00Ясно и безоблачно+24°C27 %669 мм2.1 м/с5 %
    14:00Небольшая облачность+26°C25 %668 мм4.0 м/с5 %
    17:00Практически безоблачно+24°C26 %668 мм4.6 м/с5 %
    20:00Ясно и безоблачно+19°C40 %667 мм3.2 м/с5 %
    23:00Ясно и безоблачно+15°C60 %666 мм2.3 м/с5 %
  • 24июля
    Среда
    +12°
    +27°
    Ясно и безоблачно
    ВремяПогодаТемператураВлажностьДавлениеВетер, м/сВероятность осадков
    02:00Ясно и безоблачно+13°C77 %664 мм1.7 м/с5 %
    05:00Ясно и безоблачно+11°C82 %664 мм1.8 м/с5 %
    08:00Ясно и безоблачно+19°C52 %667 мм1.2 м/с5 %
    11:00Ясно и безоблачно+24°C21 %668 мм2.0 м/с5 %
    14:00Ясно и безоблачно+27°C17 %666 мм1.3 м/с5 %
    17:00Ясно и безоблачно+24°C23 %665 мм1.1 м/с5 %
    20:00Ясно и безоблачно+19°C31 %664 мм2.0 м/с5 %
    23:00Ясно и безоблачно+17°C26 %664 мм1.5 м/с5 %
Мы используем cookies
Соглашаюсь